createdAt,value
2019-01-30T00:00:44.114Z,0.00
2019-01-30T00:01:44.274Z,0.00
2019-01-30T00:02:44.444Z,0.00
2019-01-30T00:03:44.606Z,0.00
2019-01-30T00:04:44.773Z,0.00
2019-01-30T00:05:44.943Z,0.00
2019-01-30T00:06:45.102Z,0.00
2019-01-30T00:07:45.282Z,0.00
2019-01-30T00:08:45.449Z,0.00
2019-01-30T00:09:45.620Z,0.00
2019-01-30T00:10:45.787Z,0.00
2019-01-30T00:11:45.948Z,0.00
2019-01-30T00:12:46.116Z,0.00
2019-01-30T00:13:46.286Z,0.00
2019-01-30T00:14:46.456Z,0.00
2019-01-30T00:15:55.762Z,0.00
2019-01-30T00:16:46.797Z,0.00
2019-01-30T00:17:46.957Z,0.00
2019-01-30T00:18:47.134Z,0.00
2019-01-30T00:19:47.289Z,0.00
2019-01-30T00:20:47.459Z,0.00
2019-01-30T00:21:47.626Z,0.00
2019-01-30T00:22:47.793Z,0.00
2019-01-30T00:23:47.978Z,0.00
2019-01-30T00:24:48.130Z,0.00
2019-01-30T00:25:48.295Z,0.00
2019-01-30T00:26:48.461Z,0.00
2019-01-30T00:27:48.629Z,0.00
2019-01-30T00:28:48.799Z,0.00
2019-01-30T00:29:48.976Z,0.00
2019-01-30T00:30:49.149Z,0.00
2019-01-30T00:31:49.301Z,0.00
2019-01-30T00:32:49.471Z,0.00
2019-01-30T00:33:49.637Z,0.00
2019-01-30T00:34:49.807Z,0.00
2019-01-30T00:35:49.974Z,0.00
2019-01-30T00:36:50.133Z,0.00
2019-01-30T00:37:50.321Z,0.00
2019-01-30T00:38:50.478Z,0.00
2019-01-30T00:39:50.647Z,0.00
2019-01-30T00:40:50.809Z,0.00
2019-01-30T00:41:50.977Z,0.00
2019-01-30T00:42:51.145Z,0.00
2019-01-30T00:43:51.315Z,0.00
2019-01-30T00:44:51.489Z,0.00
2019-01-30T00:45:51.649Z,0.00
2019-01-30T00:46:51.817Z,0.00
2019-01-30T00:47:52.003Z,0.00
2019-01-30T00:48:52.164Z,0.00
2019-01-30T00:49:52.345Z,0.00
2019-01-30T00:50:52.507Z,0.00
2019-01-30T00:51:52.672Z,0.00
2019-01-30T00:52:52.846Z,0.00
2019-01-30T00:53:53.024Z,0.00
2019-01-30T00:54:53.186Z,0.00
2019-01-30T00:55:53.350Z,0.00
2019-01-30T00:56:53.520Z,0.00
2019-01-30T00:57:53.689Z,0.00
2019-01-30T00:58:53.859Z,0.00
2019-01-30T00:59:54.023Z,0.00
2019-01-30T01:00:54.190Z,0.00
2019-01-30T01:01:54.453Z,0.00
2019-01-30T01:02:54.525Z,0.00
2019-01-30T01:03:54.701Z,0.00
2019-01-30T01:04:54.866Z,0.00
2019-01-30T01:06:55.193Z,0.00
2019-01-30T01:08:55.525Z,0.00
2019-01-30T01:09:55.695Z,0.00
2019-01-30T01:10:55.862Z,0.00
2019-01-30T01:11:56.033Z,0.00
2019-01-30T01:12:56.200Z,0.00
2019-01-30T01:13:56.369Z,0.00
2019-01-30T01:14:56.531Z,0.00
2019-01-30T01:15:56.709Z,0.00
2019-01-30T01:16:56.875Z,0.00
2019-01-30T01:17:57.041Z,0.00
2019-01-30T01:18:57.211Z,0.00
2019-01-30T01:19:57.389Z,0.00
2019-01-30T01:20:57.544Z,0.00
2019-01-30T01:21:57.706Z,0.00
2019-01-30T01:22:57.875Z,0.00
2019-01-30T01:23:58.040Z,0.00
2019-01-30T01:24:58.209Z,0.00
2019-01-30T01:25:58.383Z,0.00
2019-01-30T01:26:58.545Z,0.00
2019-01-30T01:27:58.712Z,0.00
2019-01-30T01:28:58.889Z,0.00
2019-01-30T01:29:59.059Z,0.00
2019-01-30T01:30:59.230Z,0.00
2019-01-30T01:31:59.404Z,0.00
2019-01-30T01:32:59.565Z,0.00
2019-01-30T01:33:59.743Z,0.00
2019-01-30T01:34:59.901Z,0.00
2019-01-30T01:36:00.069Z,0.00
2019-01-30T01:37:00.233Z,0.00
2019-01-30T01:38:00.395Z,0.00
2019-01-30T01:39:00.554Z,0.00
2019-01-30T01:40:00.722Z,0.00
2019-01-30T01:41:00.889Z,0.00
2019-01-30T01:42:01.057Z,0.00
2019-01-30T01:43:01.229Z,0.00
2019-01-30T01:44:01.396Z,0.00
2019-01-30T01:45:01.566Z,0.00
2019-01-30T01:46:01.726Z,0.00
2019-01-30T01:47:01.895Z,0.00
2019-01-30T01:48:02.073Z,0.00
2019-01-30T01:49:02.237Z,0.00
2019-01-30T01:50:02.401Z,0.00
2019-01-30T01:51:02.575Z,0.00
2019-01-30T01:52:02.745Z,0.00
2019-01-30T01:53:02.910Z,0.00
2019-01-30T01:54:03.078Z,0.00
2019-01-30T01:55:03.249Z,0.00
2019-01-30T01:56:03.415Z,0.00
2019-01-30T01:57:03.588Z,0.00
2019-01-30T01:58:03.749Z,0.00
2019-01-30T01:59:03.924Z,0.00
2019-01-30T02:00:04.084Z,0.00
2019-01-30T02:01:04.255Z,0.00
2019-01-30T02:02:04.435Z,0.00
2019-01-30T02:03:04.593Z,0.00
2019-01-30T02:04:04.760Z,0.00
2019-01-30T02:05:04.924Z,0.00
2019-01-30T02:06:05.090Z,0.00
2019-01-30T02:07:05.263Z,0.00
2019-01-30T02:08:05.420Z,0.00
2019-01-30T02:09:05.600Z,0.00
2019-01-30T02:10:05.763Z,0.00
2019-01-30T02:11:05.945Z,0.00
2019-01-30T02:12:06.105Z,0.00
2019-01-30T02:13:06.268Z,0.00
2019-01-30T02:14:06.439Z,0.00
2019-01-30T02:15:06.606Z,0.00
2019-01-30T02:16:06.777Z,0.00
2019-01-30T02:17:06.941Z,0.00
2019-01-30T02:18:08.620Z,0.00
2019-01-30T02:19:07.295Z,0.00
2019-01-30T02:20:07.449Z,0.00
2019-01-30T02:21:07.609Z,0.00
2019-01-30T02:22:07.766Z,0.00
2019-01-30T02:23:07.947Z,0.00
2019-01-30T02:24:08.945Z,0.00
2019-01-30T02:25:08.263Z,0.00
2019-01-30T02:26:08.439Z,0.00
2019-01-30T02:27:08.601Z,0.00
2019-01-30T02:28:08.762Z,0.00
2019-01-30T02:29:08.940Z,0.00
2019-01-30T02:30:09.109Z,0.00
2019-01-30T02:31:09.279Z,0.00
2019-01-30T02:32:09.441Z,0.00
2019-01-30T02:33:09.613Z,0.00
2019-01-30T02:34:09.776Z,0.00
2019-01-30T02:35:09.948Z,0.00
2019-01-30T02:36:10.116Z,0.00
2019-01-30T02:37:10.274Z,0.00
2019-01-30T02:38:10.440Z,0.00
2019-01-30T02:39:10.596Z,0.00
2019-01-30T02:40:10.765Z,0.00
2019-01-30T02:41:10.935Z,0.00
2019-01-30T02:42:11.102Z,0.00
2019-01-30T02:43:11.273Z,0.00
2019-01-30T02:44:11.433Z,0.00
2019-01-30T02:45:11.608Z,0.00
2019-01-30T02:46:11.769Z,0.00
2019-01-30T02:47:11.939Z,0.00
2019-01-30T02:48:12.108Z,0.00
2019-01-30T02:49:12.278Z,0.00
2019-01-30T02:50:12.442Z,0.00
2019-01-30T02:51:12.612Z,0.00
2019-01-30T02:52:12.776Z,0.00
2019-01-30T02:53:12.946Z,0.00
2019-01-30T02:54:13.106Z,0.00
2019-01-30T02:55:13.272Z,0.00
2019-01-30T02:56:13.434Z,0.00
2019-01-30T02:57:13.602Z,0.00
2019-01-30T02:58:13.772Z,0.00
2019-01-30T02:59:13.938Z,0.00
2019-01-30T03:00:14.105Z,0.00
2019-01-30T03:01:14.279Z,0.00
2019-01-30T03:02:14.439Z,0.00
2019-01-30T03:03:14.608Z,0.00
2019-01-30T03:04:14.772Z,0.00
2019-01-30T03:05:14.939Z,0.00
2019-01-30T03:06:15.207Z,0.00
2019-01-30T03:07:15.281Z,0.00
2019-01-30T03:08:15.445Z,0.00
2019-01-30T03:09:15.617Z,0.00
2019-01-30T03:10:15.785Z,0.00
2019-01-30T03:11:15.958Z,0.00
2019-01-30T03:12:16.135Z,0.00
2019-01-30T03:13:16.301Z,0.00
2019-01-30T03:14:16.461Z,0.00
2019-01-30T03:15:16.638Z,0.00
2019-01-30T03:16:16.801Z,0.00
2019-01-30T03:17:16.963Z,0.00
2019-01-30T03:18:17.132Z,0.00
2019-01-30T03:19:17.300Z,0.00
2019-01-30T03:20:17.487Z,0.00
2019-01-30T03:21:17.635Z,0.00
2019-01-30T03:22:17.812Z,0.00
2019-01-30T03:23:17.967Z,0.00
2019-01-30T03:24:18.137Z,0.00
2019-01-30T03:25:18.305Z,0.00
2019-01-30T03:26:18.473Z,0.00
2019-01-30T03:27:18.647Z,0.00
2019-01-30T03:28:18.913Z,0.00
2019-01-30T03:29:18.985Z,0.00
2019-01-30T03:30:19.145Z,0.00
2019-01-30T03:31:19.676Z,0.00
2019-01-30T03:32:19.494Z,0.00
2019-01-30T03:33:19.678Z,0.00
2019-01-30T03:34:19.832Z,0.00
2019-01-30T03:35:19.982Z,0.00
2019-01-30T03:36:20.165Z,0.00
2019-01-30T03:37:20.322Z,0.00
2019-01-30T03:38:20.490Z,0.00
2019-01-30T03:39:20.670Z,0.00
2019-01-30T03:40:20.846Z,0.00
2019-01-30T03:41:20.994Z,0.00
2019-01-30T03:42:21.164Z,0.00
2019-01-30T03:43:21.340Z,0.00
2019-01-30T03:44:21.498Z,0.00
2019-01-30T03:45:21.662Z,0.00
2019-01-30T03:46:21.833Z,0.00
2019-01-30T03:47:22.007Z,0.00
2019-01-30T03:48:22.172Z,0.00
2019-01-30T03:49:22.339Z,0.00
2019-01-30T03:50:22.509Z,0.00
2019-01-30T03:51:22.674Z,0.00
2019-01-30T03:52:22.839Z,0.00
2019-01-30T03:53:23.018Z,0.00
2019-01-30T03:54:23.178Z,0.00
2019-01-30T03:55:23.351Z,0.00
2019-01-30T03:56:23.510Z,0.00
2019-01-30T03:57:23.678Z,0.00
2019-01-30T03:58:23.850Z,0.00
2019-01-30T03:59:24.018Z,0.00
2019-01-30T04:00:24.192Z,0.00
2019-01-30T04:01:26.646Z,0.00
2019-01-30T04:02:24.524Z,0.00
2019-01-30T04:03:24.690Z,0.00
2019-01-30T04:04:24.871Z,0.00
2019-01-30T04:05:25.021Z,0.00
2019-01-30T04:06:25.187Z,0.00
2019-01-30T04:07:25.358Z,0.00
2019-01-30T04:08:25.527Z,0.00
2019-01-30T04:09:25.711Z,0.00
2019-01-30T04:10:25.842Z,0.00
2019-01-30T04:11:26.045Z,0.00
2019-01-30T04:12:26.182Z,0.00
2019-01-30T04:13:26.344Z,0.00
2019-01-30T04:14:26.531Z,0.00
2019-01-30T04:15:26.691Z,0.00
2019-01-30T04:16:26.932Z,0.00
2019-01-30T04:17:27.028Z,0.00
2019-01-30T04:18:27.246Z,0.00
2019-01-30T04:19:27.358Z,0.00
2019-01-30T04:20:27.533Z,0.00
2019-01-30T04:21:27.689Z,0.00
2019-01-30T04:22:27.854Z,0.00
2019-01-30T04:23:28.024Z,0.00
2019-01-30T04:24:28.194Z,0.00
2019-01-30T04:25:28.362Z,0.00
2019-01-30T04:26:28.533Z,0.00
2019-01-30T04:27:28.698Z,0.00
2019-01-30T04:28:28.906Z,0.00
2019-01-30T04:29:29.037Z,0.00
2019-01-30T04:30:29.203Z,0.00
2019-01-30T04:31:37.992Z,0.00
2019-01-30T04:32:29.564Z,0.00
2019-01-30T04:33:29.712Z,0.00
2019-01-30T04:34:29.878Z,0.00
2019-01-30T04:35:30.054Z,0.00
2019-01-30T04:36:30.208Z,0.00
2019-01-30T04:37:30.385Z,0.00
2019-01-30T04:38:30.559Z,0.00
2019-01-30T04:39:30.756Z,0.00
2019-01-30T04:40:30.888Z,0.00
2019-01-30T04:41:31.058Z,0.00
2019-01-30T04:42:31.219Z,0.00
2019-01-30T04:43:31.393Z,0.00
2019-01-30T04:44:31.555Z,0.00
2019-01-30T04:45:31.722Z,0.00
2019-01-30T04:46:31.872Z,0.00
2019-01-30T04:47:32.041Z,0.00
2019-01-30T04:48:32.210Z,0.00
2019-01-30T04:49:32.378Z,0.00
2019-01-30T04:50:32.553Z,0.00
2019-01-30T04:51:32.718Z,0.00
2019-01-30T04:52:32.878Z,0.00
2019-01-30T04:53:33.046Z,0.00
2019-01-30T04:54:33.221Z,0.00
2019-01-30T04:55:33.385Z,0.00
2019-01-30T04:56:33.550Z,0.00
2019-01-30T04:57:33.732Z,0.00
2019-01-30T04:58:33.885Z,0.00
2019-01-30T04:59:34.052Z,0.00
2019-01-30T05:00:34.220Z,0.00
2019-01-30T05:01:34.389Z,0.00
2019-01-30T05:02:34.548Z,0.00
2019-01-30T05:03:34.720Z,0.00
2019-01-30T05:04:34.885Z,0.00
2019-01-30T05:05:35.054Z,0.00
2019-01-30T05:06:35.236Z,0.00
2019-01-30T05:07:35.389Z,0.00
2019-01-30T05:08:35.559Z,0.00
2019-01-30T05:09:35.733Z,0.00
2019-01-30T05:10:35.903Z,0.00
2019-01-30T05:11:36.068Z,0.00
2019-01-30T05:12:36.244Z,0.00
2019-01-30T05:13:36.414Z,0.00
2019-01-30T05:14:36.553Z,0.00
2019-01-30T05:15:36.717Z,0.00
2019-01-30T05:16:37.464Z,0.00
2019-01-30T05:17:37.042Z,0.00
2019-01-30T05:18:37.197Z,0.00
2019-01-30T05:19:37.371Z,0.00
2019-01-30T05:20:37.530Z,0.00
2019-01-30T05:21:37.698Z,0.00
2019-01-30T05:22:37.871Z,0.00
2019-01-30T05:23:38.035Z,0.00
2019-01-30T05:24:38.208Z,0.00
2019-01-30T05:25:38.374Z,0.00
2019-01-30T05:26:38.549Z,0.00
2019-01-30T05:27:38.710Z,0.00
2019-01-30T05:28:38.878Z,0.00
2019-01-30T05:29:39.049Z,0.00
2019-01-30T05:30:39.226Z,0.00
2019-01-30T05:31:39.391Z,0.00
2019-01-30T05:32:39.555Z,0.00
2019-01-30T05:33:39.718Z,0.00
2019-01-30T05:35:40.046Z,0.00
2019-01-30T05:36:40.215Z,0.00
2019-01-30T05:38:40.591Z,0.00
2019-01-30T05:39:40.734Z,0.00
2019-01-30T06:09:45.589Z,0.00
2019-01-30T06:10:45.755Z,0.00
2019-01-30T06:12:46.090Z,0.00
2019-01-30T06:13:46.264Z,0.00
2019-01-30T06:14:46.426Z,0.00
2019-01-30T06:15:46.597Z,0.00
2019-01-30T06:16:46.767Z,0.00
2019-01-30T06:17:46.928Z,0.00
2019-01-30T06:21:47.579Z,0.00
2019-01-30T06:22:47.758Z,0.00
2019-01-30T06:23:47.915Z,0.00
2019-01-30T06:24:48.082Z,0.00
2019-01-30T06:25:48.258Z,0.00
2019-01-30T06:26:48.418Z,0.00
2019-01-30T06:27:48.599Z,4.00
2019-01-30T06:28:48.751Z,4.00
2019-01-30T06:29:48.937Z,0.00
2019-01-30T06:30:49.082Z,0.00
2019-01-30T06:32:49.413Z,4.00
2019-01-30T06:33:49.591Z,4.00
2019-01-30T06:37:50.230Z,4.00
2019-01-30T06:38:50.401Z,8.00
2019-01-30T06:39:50.566Z,8.00
2019-01-30T06:40:50.759Z,12.00
2019-01-30T06:41:50.898Z,12.00
2019-01-30T06:42:51.073Z,16.00
2019-01-30T06:43:51.229Z,16.00
2019-01-30T06:44:51.399Z,20.00
2019-01-30T06:45:51.564Z,24.00
2019-01-30T06:46:51.732Z,24.00
2019-01-30T06:47:51.911Z,28.00
2019-01-30T06:48:52.066Z,32.00
2019-01-30T06:49:52.271Z,36.00
2019-01-30T06:50:52.418Z,44.00
2019-01-30T06:51:52.595Z,48.00
2019-01-30T06:52:52.767Z,56.00
2019-01-30T06:53:52.929Z,60.00
2019-01-30T06:54:53.102Z,64.00
2019-01-30T06:55:53.271Z,68.00
2019-01-30T06:56:53.444Z,72.00
2019-01-30T06:57:53.607Z,80.00
2019-01-30T06:58:53.774Z,88.00
2019-01-30T06:59:53.943Z,96.00
2019-01-30T07:00:54.111Z,100.00
2019-01-30T07:01:54.283Z,104.00
2019-01-30T07:02:54.445Z,112.00
2019-01-30T07:03:54.615Z,120.00
2019-01-30T07:04:54.781Z,128.00
2019-01-30T07:05:54.949Z,136.00
2019-01-30T07:06:55.114Z,144.00
2019-01-30T07:07:55.292Z,160.00
2019-01-30T07:08:55.460Z,172.00
2019-01-30T07:09:55.630Z,184.00
2019-01-30T07:10:55.822Z,196.00
2019-01-30T07:11:56.004Z,208.00
2019-01-30T07:12:56.184Z,220.00
2019-01-30T07:13:56.362Z,236.00
2019-01-30T07:14:56.528Z,248.00
2019-01-30T07:15:56.718Z,264.00
2019-01-30T07:16:56.906Z,276.00
2019-01-30T07:17:57.056Z,292.00
2019-01-30T07:18:57.181Z,308.00
2019-01-30T07:19:57.363Z,320.00
2019-01-30T07:20:57.527Z,332.00
2019-01-30T07:21:57.831Z,348.00
2019-01-30T07:22:58.479Z,360.00
2019-01-30T07:23:58.172Z,372.00
2019-01-30T07:24:58.329Z,388.00
2019-01-30T07:25:58.539Z,404.00
2019-01-30T07:26:58.748Z,420.00
2019-01-30T07:27:58.905Z,440.00
2019-01-30T07:28:59.032Z,452.00
2019-01-30T07:29:59.201Z,472.00
2019-01-30T07:30:59.418Z,496.00
2019-01-30T07:31:59.570Z,516.00
2019-01-30T07:32:59.891Z,536.00
2019-01-30T07:33:59.884Z,552.00
2019-01-30T07:35:00.037Z,568.00
2019-01-30T07:36:00.243Z,584.00
2019-01-30T07:37:00.408Z,600.00
2019-01-30T07:38:00.597Z,612.00
2019-01-30T07:39:00.870Z,624.00
2019-01-30T07:40:01.045Z,632.00
2019-01-30T07:41:01.160Z,644.00
2019-01-30T07:42:01.346Z,656.00
2019-01-30T07:43:01.538Z,664.00
2019-01-30T07:44:01.808Z,672.00
2019-01-30T07:45:01.859Z,684.00
2019-01-30T07:46:02.018Z,688.00
2019-01-30T07:47:02.188Z,700.00
2019-01-30T07:48:02.380Z,708.00
2019-01-30T07:49:02.632Z,712.00
2019-01-30T07:50:02.771Z,716.00
2019-01-30T07:51:02.933Z,724.00
2019-01-30T07:52:03.118Z,732.00
2019-01-30T07:53:03.274Z,740.00
2019-01-30T07:54:03.442Z,752.00
2019-01-30T07:55:03.586Z,760.00
2019-01-30T07:56:03.866Z,772.00
2019-01-30T07:57:03.918Z,788.00
2019-01-30T07:58:05.813Z,804.00
2019-01-30T07:59:04.252Z,824.00
2019-01-30T08:00:04.392Z,840.00
2019-01-30T08:01:04.559Z,860.00
2019-01-30T08:02:04.747Z,876.00
2019-01-30T08:03:04.964Z,888.00
2019-01-30T08:04:05.099Z,900.00
2019-01-30T08:05:05.243Z,908.00
2019-01-30T08:06:05.414Z,916.00
2019-01-30T08:07:05.583Z,916.00
2019-01-30T08:08:05.772Z,924.00
2019-01-30T08:09:05.893Z,920.00
2019-01-30T08:10:06.055Z,920.00
2019-01-30T08:11:07.435Z,912.00
2019-01-30T08:12:06.990Z,904.00
2019-01-30T08:13:06.561Z,892.00
2019-01-30T08:14:06.762Z,876.00
2019-01-30T08:15:06.891Z,860.00
2019-01-30T08:16:07.108Z,860.00
2019-01-30T08:17:07.246Z,856.00
2019-01-30T08:18:07.391Z,856.00
2019-01-30T08:19:07.655Z,852.00
2019-01-30T08:20:07.820Z,852.00
2019-01-30T08:21:07.931Z,864.00
2019-01-30T08:22:08.114Z,880.00
2019-01-30T08:23:08.732Z,904.00
2019-01-30T08:24:08.792Z,924.00
2019-01-30T08:25:08.667Z,944.00
2019-01-30T08:26:09.175Z,960.00
2019-01-30T08:27:09.257Z,980.00
2019-01-30T08:28:09.151Z,1000.00
2019-01-30T08:29:09.680Z,1020.00
2019-01-30T08:30:09.878Z,1036.00
2019-01-30T08:31:09.851Z,1060.00
2019-01-30T08:32:10.050Z,1084.00
2019-01-30T08:33:10.137Z,1108.00
2019-01-30T08:34:10.196Z,1128.00
2019-01-30T08:35:10.329Z,1160.00
2019-01-30T08:36:10.605Z,1196.00
2019-01-30T08:37:10.716Z,1252.00
2019-01-30T08:38:10.919Z,1304.00
2019-01-30T08:39:11.073Z,1344.00
2019-01-30T08:40:11.244Z,1412.00
2019-01-30T08:41:11.431Z,1472.00
2019-01-30T08:42:11.657Z,1528.00
2019-01-30T08:43:11.742Z,1596.00
2019-01-30T08:44:11.965Z,1680.00
2019-01-30T08:45:12.122Z,1760.00
2019-01-30T08:46:12.324Z,1808.00
2019-01-30T08:47:12.478Z,1848.00
2019-01-30T08:48:12.661Z,1876.00
2019-01-30T08:49:12.863Z,1908.00
2019-01-30T08:50:12.957Z,1932.00
2019-01-30T08:51:13.123Z,1948.00
2019-01-30T08:52:13.292Z,1952.00
2019-01-30T08:53:13.457Z,1956.00
2019-01-30T08:54:13.630Z,1964.00
2019-01-30T08:55:13.798Z,1964.00
2019-01-30T08:56:14.022Z,1976.00
2019-01-30T08:57:14.155Z,1980.00
2019-01-30T08:58:14.330Z,1976.00
2019-01-30T08:59:14.483Z,1956.00
2019-01-30T09:00:14.655Z,1944.00
2019-01-30T09:01:14.851Z,1924.00
2019-01-30T09:02:15.067Z,1904.00
2019-01-30T09:03:15.288Z,1876.00
2019-01-30T09:04:15.320Z,1872.00
2019-01-30T09:05:15.519Z,1880.00
2019-01-30T09:06:15.637Z,1876.00
2019-01-30T09:07:15.889Z,1880.00
2019-01-30T09:08:16.035Z,1876.00
2019-01-30T09:09:16.277Z,1868.00
2019-01-30T09:10:16.405Z,1864.00
2019-01-30T09:11:16.620Z,1872.00
2019-01-30T09:12:16.844Z,1876.00
2019-01-30T09:13:17.107Z,1856.00
2019-01-30T09:14:17.183Z,1824.00
2019-01-30T09:15:17.340Z,1792.00
2019-01-30T09:16:17.516Z,1748.00
2019-01-30T09:17:17.686Z,1684.00
2019-01-30T09:18:17.912Z,1616.00
2019-01-30T09:19:18.146Z,1568.00
2019-01-30T09:20:18.254Z,1516.00
2019-01-30T09:21:18.460Z,1480.00
2019-01-30T09:22:18.579Z,1444.00
2019-01-30T09:23:18.730Z,1424.00
2019-01-30T09:24:18.971Z,1408.00
2019-01-30T09:25:19.170Z,1396.00
2019-01-30T09:26:19.310Z,1376.00
2019-01-30T09:27:19.469Z,1348.00
2019-01-30T09:28:19.872Z,1300.00
2019-01-30T09:29:19.891Z,1248.00
2019-01-30T09:30:20.015Z,1200.00
2019-01-30T09:31:20.244Z,1176.00
2019-01-30T09:32:20.368Z,1160.00
2019-01-30T09:33:25.846Z,1132.00
2019-01-30T09:34:20.726Z,1096.00
2019-01-30T09:35:20.875Z,1100.00
2019-01-30T09:36:21.072Z,1100.00
2019-01-30T09:37:21.219Z,1060.00
2019-01-30T09:38:21.446Z,1024.00
2019-01-30T09:39:21.538Z,1028.00
2019-01-30T09:40:21.849Z,1060.00
2019-01-30T09:41:21.999Z,1160.00
2019-01-30T09:42:22.079Z,1276.00
2019-01-30T09:43:22.311Z,1376.00
2019-01-30T09:44:22.512Z,1460.00
2019-01-30T09:45:22.635Z,1516.00
2019-01-30T09:46:22.779Z,1564.00
2019-01-30T09:47:22.910Z,1560.00
2019-01-30T09:48:23.062Z,1576.00
2019-01-30T09:49:23.366Z,1632.00
2019-01-30T09:50:23.455Z,1680.00
2019-01-30T09:51:23.591Z,1704.00
2019-01-30T09:52:26.891Z,1724.00
2019-01-30T09:53:23.993Z,1732.00
2019-01-30T09:54:24.035Z,1688.00
2019-01-30T09:55:24.315Z,1636.00
2019-01-30T09:56:24.450Z,1576.00
2019-01-30T09:57:24.710Z,1500.00
2019-01-30T09:58:24.711Z,1432.00
2019-01-30T09:59:24.903Z,1388.00
2019-01-30T10:00:25.079Z,1340.00
2019-01-30T10:01:25.247Z,1268.00
2019-01-30T10:02:25.596Z,1192.00
2019-01-30T10:03:35.759Z,1152.00
2019-01-30T10:04:25.825Z,1252.00
2019-01-30T10:05:25.946Z,1524.00
2019-01-30T10:06:26.059Z,1808.00
2019-01-30T10:07:26.225Z,2064.00
2019-01-30T10:08:26.571Z,2204.00
2019-01-30T10:09:26.597Z,2256.00
2019-01-30T10:10:26.772Z,2340.00
2019-01-30T10:11:26.959Z,2372.00
2019-01-30T10:12:27.199Z,2456.00
2019-01-30T10:13:27.317Z,2620.00
2019-01-30T10:14:27.557Z,2692.00
2019-01-30T10:15:27.657Z,2692.00
2019-01-30T10:16:27.801Z,2680.00
2019-01-30T10:17:27.940Z,2656.00
2019-01-30T10:18:28.121Z,2624.00
2019-01-30T10:19:28.317Z,2580.00
2019-01-30T10:20:28.457Z,2544.00
2019-01-30T10:21:28.650Z,2532.00
2019-01-30T10:22:28.880Z,2520.00
2019-01-30T10:23:28.986Z,2424.00
2019-01-30T10:24:29.236Z,2264.00
2019-01-30T10:25:29.367Z,2224.00
2019-01-30T10:26:29.616Z,2304.00
2019-01-30T10:27:29.731Z,2448.00
2019-01-30T10:28:29.917Z,2596.00
2019-01-30T10:29:30.243Z,2748.00
2019-01-30T10:30:30.328Z,2908.00
2019-01-30T10:31:30.405Z,3188.00
2019-01-30T10:32:30.569Z,3484.00
2019-01-30T10:33:30.757Z,3796.00
2019-01-30T10:34:30.912Z,4156.00
2019-01-30T10:35:31.072Z,4576.00
2019-01-30T10:36:31.267Z,5180.00
2019-01-30T10:37:31.464Z,5224.00
2019-01-30T10:38:31.577Z,5080.00
2019-01-30T10:39:31.705Z,5160.00
2019-01-30T10:40:31.869Z,5400.00
2019-01-30T10:41:32.042Z,5448.00
2019-01-30T10:42:32.219Z,5460.00
2019-01-30T10:43:32.391Z,5448.00
2019-01-30T10:44:32.618Z,5352.00
2019-01-30T10:45:32.774Z,5204.00
2019-01-30T10:46:32.978Z,4932.00
2019-01-30T10:47:33.129Z,4556.00
2019-01-30T10:48:33.315Z,4152.00
2019-01-30T10:49:33.428Z,3812.00
2019-01-30T10:50:33.657Z,3656.00
2019-01-30T10:51:33.839Z,3632.00
2019-01-30T10:52:34.006Z,3616.00
2019-01-30T10:53:34.173Z,3632.00
2019-01-30T10:54:34.351Z,3672.00
2019-01-30T10:55:34.524Z,3792.00
2019-01-30T10:56:34.708Z,4120.00
2019-01-30T10:57:34.837Z,5036.00
2019-01-30T10:58:35.028Z,7344.00
2019-01-30T10:59:35.187Z,5852.00
2019-01-30T11:00:35.373Z,5744.00
2019-01-30T11:01:35.532Z,5692.00
2019-01-30T11:02:35.672Z,5556.00
2019-01-30T11:03:35.806Z,5560.00
2019-01-30T11:04:36.012Z,5428.00
2019-01-30T11:05:36.188Z,5432.00
2019-01-30T11:06:36.322Z,5380.00
2019-01-30T11:07:36.500Z,5324.00
2019-01-30T11:08:37.511Z,5168.00
2019-01-30T11:09:36.847Z,4952.00
2019-01-30T11:10:36.998Z,4744.00
2019-01-30T11:11:37.221Z,4528.00
2019-01-30T11:12:37.402Z,4368.00
2019-01-30T11:13:37.528Z,4252.00
2019-01-30T11:14:37.885Z,4116.00
2019-01-30T11:15:37.942Z,4008.00
2019-01-30T11:16:38.069Z,3984.00
2019-01-30T11:17:38.227Z,4056.00
2019-01-30T11:18:38.434Z,4276.00
2019-01-30T11:19:38.664Z,4480.00
2019-01-30T11:20:38.777Z,4784.00
2019-01-30T11:21:38.926Z,4792.00
2019-01-30T11:22:39.163Z,4832.00
2019-01-30T11:23:39.274Z,4740.00
2019-01-30T11:24:39.427Z,4524.00
2019-01-30T11:25:39.720Z,4240.00
2019-01-30T11:26:39.783Z,3944.00
2019-01-30T11:27:40.030Z,3668.00
2019-01-30T11:28:40.123Z,3400.00
2019-01-30T11:29:40.268Z,3188.00
2019-01-30T11:30:40.505Z,2964.00
2019-01-30T11:31:40.686Z,2824.00
2019-01-30T11:32:40.839Z,2748.00
2019-01-30T11:33:41.028Z,2668.00
2019-01-30T11:34:41.198Z,2552.00
2019-01-30T11:35:41.373Z,2388.00
2019-01-30T11:36:41.548Z,2268.00
2019-01-30T11:37:41.725Z,2164.00
2019-01-30T11:38:41.881Z,2064.00
2019-01-30T11:39:42.022Z,2004.00
2019-01-30T11:40:42.237Z,2016.00
2019-01-30T11:41:42.390Z,2012.00
2019-01-30T11:42:42.577Z,1980.00
2019-01-30T11:43:42.761Z,1900.00
2019-01-30T11:44:42.965Z,1824.00
2019-01-30T11:45:43.087Z,1780.00
2019-01-30T11:46:43.257Z,1704.00
2019-01-30T11:47:43.411Z,1696.00
2019-01-30T11:48:43.608Z,1748.00
2019-01-30T11:49:43.739Z,1868.00
2019-01-30T11:50:43.919Z,2000.00
2019-01-30T11:51:44.080Z,2176.00
2019-01-30T11:52:44.280Z,2296.00
2019-01-30T11:53:44.423Z,2336.00
2019-01-30T11:54:44.656Z,2264.00
2019-01-30T11:55:44.809Z,2132.00
2019-01-30T11:56:45.030Z,1968.00
2019-01-30T11:57:45.126Z,1816.00
2019-01-30T11:58:45.300Z,1724.00
2019-01-30T11:59:45.479Z,1672.00
2019-01-30T12:00:45.635Z,1644.00
2019-01-30T12:01:45.817Z,1660.00
2019-01-30T12:02:47.881Z,1696.00
2019-01-30T12:03:46.179Z,1752.00
2019-01-30T12:04:46.408Z,1852.00
2019-01-30T12:05:46.493Z,1900.00
2019-01-30T12:06:46.665Z,1952.00
2019-01-30T12:07:46.831Z,2020.00
2019-01-30T12:08:47.104Z,2088.00
2019-01-30T12:09:47.182Z,2080.00
2019-01-30T12:10:47.327Z,2060.00
2019-01-30T12:11:47.501Z,2020.00
2019-01-30T12:12:47.664Z,1976.00
2019-01-30T12:13:47.847Z,1912.00
2019-01-30T12:14:48.012Z,1872.00
2019-01-30T12:15:48.184Z,1860.00
2019-01-30T12:16:48.346Z,1852.00
2019-01-30T12:17:48.508Z,1868.00
2019-01-30T12:18:48.725Z,1884.00
2019-01-30T12:19:48.901Z,1928.00
2019-01-30T12:20:51.850Z,2032.00
2019-01-30T12:21:49.241Z,2140.00
2019-01-30T12:22:49.410Z,2228.00
2019-01-30T12:23:49.580Z,2284.00
2019-01-30T12:24:49.793Z,2312.00
2019-01-30T12:25:49.938Z,2288.00
2019-01-30T12:26:50.116Z,2180.00
2019-01-30T12:27:50.896Z,2004.00
2019-01-30T12:28:50.432Z,1852.00
2019-01-30T12:29:50.605Z,1708.00
2019-01-30T12:30:50.774Z,1656.00
2019-01-30T12:31:50.945Z,1720.00
2019-01-30T12:32:51.117Z,1812.00
2019-01-30T12:33:51.302Z,1888.00
2019-01-30T12:34:51.468Z,1924.00
2019-01-30T12:35:51.635Z,1724.00
2019-01-30T12:36:51.820Z,1500.00
2019-01-30T12:37:51.985Z,1380.00
2019-01-30T12:38:52.240Z,1304.00
2019-01-30T12:39:52.362Z,1272.00
2019-01-30T12:40:52.495Z,1288.00
2019-01-30T12:41:52.699Z,1240.00
2019-01-30T12:42:52.967Z,1224.00
2019-01-30T12:43:53.085Z,1252.00
2019-01-30T12:44:53.235Z,1380.00
2019-01-30T12:45:53.451Z,1632.00
2019-01-30T12:46:53.563Z,1872.00
2019-01-30T12:47:53.768Z,2048.00
2019-01-30T12:48:53.933Z,2240.00
2019-01-30T12:49:54.259Z,2536.00
2019-01-30T12:50:54.371Z,2844.00
2019-01-30T12:51:54.480Z,2924.00
2019-01-30T12:52:54.630Z,2744.00
2019-01-30T12:53:54.891Z,2488.00
2019-01-30T12:54:55.017Z,2336.00
2019-01-30T12:55:55.224Z,2328.00
2019-01-30T12:56:55.427Z,2376.00
2019-01-30T12:57:55.632Z,2444.00
2019-01-30T12:58:55.803Z,2432.00
2019-01-30T12:59:55.959Z,2324.00
2019-01-30T13:00:56.084Z,2188.00
2019-01-30T13:01:56.222Z,2036.00
2019-01-30T13:02:56.379Z,1916.00
2019-01-30T13:03:56.572Z,1820.00
2019-01-30T13:04:56.739Z,1764.00
2019-01-30T13:05:56.973Z,1700.00
2019-01-30T13:06:57.120Z,1620.00
2019-01-30T13:07:57.287Z,1564.00
2019-01-30T13:08:57.463Z,1548.00
2019-01-30T13:09:57.643Z,1516.00
2019-01-30T13:10:57.859Z,1412.00
2019-01-30T13:11:58.069Z,1356.00
2019-01-30T13:12:58.274Z,1348.00
2019-01-30T13:13:58.512Z,1396.00
2019-01-30T13:14:58.592Z,1476.00
2019-01-30T13:15:58.726Z,1532.00
2019-01-30T13:16:58.906Z,1564.00
2019-01-30T13:17:59.055Z,1608.00
2019-01-30T13:18:59.261Z,1668.00
2019-01-30T13:19:59.493Z,1660.00
2019-01-30T13:20:59.663Z,1588.00
2019-01-30T13:21:59.784Z,1496.00
2019-01-30T13:22:59.966Z,1416.00
2019-01-30T13:24:00.167Z,1316.00
2019-01-30T13:25:00.429Z,1160.00
2019-01-30T13:26:00.512Z,1112.00